Time;durP1;ratioP1;P1;durP2;ratioP2;P2;SDS_P1;SDS_P2;PMS_P1;PMS_P2;Temp;Humidity;BMP_temperature;BMP_pressure;BME280_temperature;BME280_humidity;BME280_pressure;Samples;Min_cycle;Max_cycle;Signal;HPM_P1;HPM_P2
2023/04/24 00:01:26;;;;;;;9.80;1.67;;;15.70;87.50;;;;;;5046684;28;20068;-60
2023/04/24 00:03:52;;;;;;;9.85;1.45;;;15.70;87.60;;;;;;5046709;28;20028;-60
2023/04/24 00:06:17;;;;;;;5.13;1.52;;;15.70;87.60;;;;;;5046872;28;20038;-59
2023/04/24 00:08:43;;;;;;;9.13;1.75;;;15.70;87.70;;;;;;5046777;28;20028;-60
2023/04/24 00:11:09;;;;;;;5.53;1.55;;;15.60;87.90;;;;;;5046757;28;20083;-60
2023/04/24 00:13:35;;;;;;;7.13;1.52;;;15.60;88.00;;;;;;5046677;28;20143;-59
2023/04/24 00:16:00;;;;;;;4.70;1.25;;;15.60;87.80;;;;;;5046614;28;20041;-60
2023/04/24 00:18:26;;;;;;;8.57;1.40;;;15.60;87.90;;;;;;5046641;28;20097;-59
2023/04/24 00:20:51;;;;;;;5.95;1.48;;;15.50;87.90;;;;;;5046778;28;20442;-60
2023/04/24 00:23:17;;;;;;;6.50;1.35;;;15.50;87.90;;;;;;5046583;28;20502;-60
2023/04/24 00:25:43;;;;;;;3.28;1.10;;;15.50;88.00;;;;;;5046402;28;20026;-59
2023/04/24 00:28:09;;;;;;;6.07;1.50;;;15.50;88.10;;;;;;5046375;28;20059;-60
2023/04/24 00:30:34;;;;;;;4.00;1.30;;;15.50;88.20;;;;;;5044811;28;20041;-60
2023/04/24 00:33:00;;;;;;;5.03;1.38;;;15.40;88.20;;;;;;5046357;28;20029;-60
2023/04/24 00:35:26;;;;;;;3.75;1.35;;;15.40;88.30;;;;;;5046065;28;20043;-59
2023/04/24 00:37:52;;;;;;;5.20;1.33;;;15.40;88.40;;;;;;5046017;28;20033;-60
2023/04/24 00:40:17;;;;;;;6.20;1.30;;;15.40;88.50;;;;;;5044417;28;20039;-59
2023/04/24 00:42:43;;;;;;;3.90;1.20;;;15.40;88.50;;;;;;5045824;28;20029;-60
2023/04/24 00:45:09;;;;;;;3.85;1.30;;;15.40;88.40;;;;;;5045918;28;20082;-60
2023/04/24 00:47:35;;;;;;;6.10;1.33;;;15.40;88.50;;;;;;5044688;28;20192;-60
2023/04/24 00:50:25;;;;;;;3.67;1.08;;;15.30;88.40;;;;;;5045813;28;20072;-60
2023/04/24 00:52:51;;;;;;;2.97;1.00;;;15.30;88.50;;;;;;5043286;28;20465;-59
2023/04/24 00:55:17;;;;;;;7.57;1.13;;;15.30;88.50;;;;;;5043292;28;20065;-60
2023/04/24 00:57:43;;;;;;;4.07;1.13;;;15.30;88.40;;;;;;5043341;28;20044;-60
2023/04/24 01:00:12;;;;;;;4.35;1.17;;;15.30;88.30;;;;;;5043093;28;20093;-60
2023/04/24 01:02:44;;;;;;;7.18;1.17;;;15.30;88.40;;;;;;5043315;28;20029;-59
2023/04/24 01:05:13;;;;;;;7.78;1.40;;;15.20;88.30;;;;;;5042653;28;20037;-59
2023/04/24 01:07:39;;;;;;;3.55;1.30;;;15.20;88.30;;;;;;5043290;28;20033;-59
2023/04/24 01:10:05;;;;;;;2.80;1.00;;;15.20;88.50;;;;;;5043852;28;20056;-60
2023/04/24 01:12:31;;;;;;;4.30;1.20;;;15.20;88.50;;;;;;5044543;28;20080;-59
2023/04/24 01:14:57;;;;;;;6.85;1.10;;;15.20;88.60;;;;;;5043305;28;20041;-60
2023/04/24 01:17:23;;;;;;;6.70;1.13;;;15.20;88.50;;;;;;5042957;28;20033;-60
2023/04/24 01:19:48;;;;;;;3.28;1.13;;;15.20;88.40;;;;;;5042944;28;20045;-59
2023/04/24 01:22:14;;;;;;;4.53;1.30;;;15.20;88.40;;;;;;5042818;28;20041;-59
2023/04/24 01:24:40;;;;;;;5.65;1.23;;;15.10;88.40;;;;;;5044824;28;20037;-60
2023/04/24 01:27:07;;;;;;;2.67;1.10;;;15.10;88.30;;;;;;5043764;28;20044;-60
2023/04/24 01:29:32;;;;;;;2.75;0.95;;;15.10;88.40;;;;;;5045049;28;20025;-60
2023/04/24 01:31:58;;;;;;;4.90;1.30;;;15.10;88.50;;;;;;5045299;28;20049;-60
2023/04/24 01:34:24;;;;;;;4.20;1.13;;;15.10;88.50;;;;;;5043717;28;20112;-59
2023/04/24 01:36:50;;;;;;;3.22;0.75;;;15.10;88.50;;;;;;5043763;28;20037;-59
2023/04/24 01:39:16;;;;;;;2.50;1.02;;;15.00;88.40;;;;;;5043769;28;20137;-60
2023/04/24 01:41:42;;;;;;;5.25;1.23;;;15.00;88.50;;;;;;5044528;28;20469;-60
2023/04/24 01:44:07;;;;;;;3.38;1.08;;;15.00;88.50;;;;;;5044926;28;20029;-59
2023/04/24 01:46:34;;;;;;;2.05;0.60;;;15.00;88.50;;;;;;5045051;28;20040;-60
2023/04/24 01:49:00;;;;;;;4.93;0.90;;;15.00;88.50;;;;;;5044922;28;20052;-60
2023/04/24 01:51:26;;;;;;;3.58;1.10;;;15.00;89.20;;;;;;5044967;28;20037;-59
2023/04/24 01:53:53;;;;;;;2.38;0.93;;;15.00;88.50;;;;;;5044640;28;20049;-59
2023/04/24 01:56:19;;;;;;;4.25;1.02;;;14.90;88.50;;;;;;5044938;28;20056;-60
2023/04/24 01:58:45;;;;;;;1.35;0.98;;;14.90;88.50;;;;;;5043545;28;20057;-59
2023/04/24 02:01:18;;;;;;;3.40;1.08;;;14.90;88.60;;;;;;5044839;28;20041;-59
2023/04/24 02:03:44;;;;;;;1.17;0.60;;;14.90;88.50;;;;;;5044778;28;20041;-60
2023/04/24 02:06:09;;;;;;;1.45;0.68;;;14.90;88.60;;;;;;5044699;28;20041;-59
2023/04/24 02:08:35;;;;;;;2.53;0.88;;;14.90;88.70;;;;;;5043341;28;20052;-59
2023/04/24 02:11:02;;;;;;;2.10;0.80;;;14.90;88.60;;;;;;5043256;28;20041;-60
2023/04/24 02:13:27;;;;;;;2.58;0.88;;;14.80;88.60;;;;;;5043347;28;20036;-59
2023/04/24 02:15:53;;;;;;;5.78;0.90;;;14.80;88.60;;;;;;5044871;28;20033;-60
2023/04/24 02:18:18;;;;;;;2.15;0.90;;;14.80;88.60;;;;;;5043244;28;20025;-59
2023/04/24 02:20:44;;;;;;;2.58;0.55;;;14.80;88.60;;;;;;5044293;28;20037;-59
2023/04/24 02:23:10;;;;;;;1.17;0.40;;;14.80;88.50;;;;;;5044599;28;20030;-59
2023/04/24 02:25:35;;;;;;;2.08;0.75;;;14.80;88.50;;;;;;5044656;28;20026;-59
2023/04/24 02:28:01;;;;;;;3.30;0.82;;;14.80;88.50;;;;;;5044582;28;20021;-60
2023/04/24 02:30:26;;;;;;;1.83;0.60;;;14.70;88.40;;;;;;5044421;28;20029;-59
2023/04/24 02:32:53;;;;;;;1.77;0.70;;;14.70;88.40;;;;;;5044568;28;20041;-59
2023/04/24 02:35:19;;;;;;;1.98;0.82;;;14.70;88.50;;;;;;5044164;28;20054;-59
2023/04/24 02:37:44;;;;;;;1.13;0.70;;;14.70;88.60;;;;;;5045778;28;20025;-59
2023/04/24 02:40:10;;;;;;;4.53;0.88;;;14.60;88.60;;;;;;5042952;28;20037;-59
2023/04/24 02:42:36;;;;;;;1.23;0.55;;;14.60;88.60;;;;;;5043078;28;20022;-59
2023/04/24 02:45:01;;;;;;;2.95;0.75;;;14.60;88.70;;;;;;5044487;28;20411;-59
2023/04/24 02:47:27;;;;;;;4.10;0.85;;;14.60;89.40;;;;;;5044377;28;20032;-59
2023/04/24 02:49:52;;;;;;;0.88;0.55;;;14.60;88.60;;;;;;5044303;28;20018;-59
2023/04/24 02:52:18;;;;;;;2.30;0.88;;;14.60;88.60;;;;;;5044376;28;20076;-59
2023/04/24 02:54:43;;;;;;;3.63;0.80;;;14.60;88.60;;;;;;5047079;28;20047;-59
2023/04/24 02:57:09;;;;;;;2.55;0.80;;;14.50;88.60;;;;;;5046664;28;20041;-59
2023/04/24 02:59:35;;;;;;;3.10;0.63;;;14.50;89.20;;;;;;5047993;28;20026;-59
2023/04/24 03:02:00;;;;;;;2.78;0.90;;;14.50;88.70;;;;;;5047968;28;20081;-59
2023/04/24 03:04:26;;;;;;;2.72;0.60;;;14.50;88.70;;;;;;5046499;28;20037;-59
2023/04/24 03:06:54;;;;;;;1.30;0.43;;;14.50;88.70;;;;;;5046510;28;20030;-59
2023/04/24 03:09:23;;;;;;;2.85;0.80;;;14.50;88.80;;;;;;5047737;28;20032;-59
2023/04/24 03:11:50;;;;;;;1.20;0.40;;;14.40;89.50;;;;;;5047888;28;20579;-59
2023/04/24 03:14:16;;;;;;;1.98;0.60;;;14.40;88.80;;;;;;5047661;28;20072;-59
2023/04/24 03:16:41;;;;;;;2.30;0.60;;;14.40;88.80;;;;;;5048049;28;20037;-60
2023/04/24 03:19:07;;;;;;;1.98;0.52;;;14.40;88.90;;;;;;5047948;28;20021;-60
2023/04/24 03:21:32;;;;;;;1.67;0.40;;;14.40;88.90;;;;;;5047602;28;20043;-59
2023/04/24 03:23:58;;;;;;;3.08;0.43;;;14.40;88.80;;;;;;5046515;28;20049;-60
2023/04/24 03:26:24;;;;;;;1.38;0.60;;;14.30;88.80;;;;;;5046365;28;20029;-60
2023/04/24 03:28:50;;;;;;;2.67;0.43;;;14.40;88.80;;;;;;5047461;28;20197;-59
2023/04/24 03:31:16;;;;;;;1.30;0.40;;;14.30;88.70;;;;;;5047466;28;20033;-59
2023/04/24 03:33:42;;;;;;;0.73;0.40;;;14.30;88.70;;;;;;5047624;28;20056;-60
2023/04/24 03:36:08;;;;;;;1.00;0.55;;;14.30;88.80;;;;;;5047628;28;20096;-59
2023/04/24 03:38:33;;;;;;;2.88;0.50;;;14.30;88.80;;;;;;5045976;28;20033;-60
2023/04/24 03:40:59;;;;;;;1.67;0.45;;;14.30;88.80;;;;;;5047321;28;20042;-59
2023/04/24 03:43:24;;;;;;;1.10;0.55;;;14.30;88.80;;;;;;5047581;28;20106;-59
2023/04/24 03:45:50;;;;;;;2.92;0.80;;;14.30;88.90;;;;;;5047517;28;20386;-59
2023/04/24 03:48:16;;;;;;;0.93;0.45;;;14.30;89.50;;;;;;5047150;28;20030;-60
2023/04/24 03:50:41;;;;;;;0.80;0.35;;;14.20;88.90;;;;;;5047012;28;20030;-59
2023/04/24 03:53:07;;;;;;;0.85;0.40;;;14.20;88.90;;;;;;5046918;28;20029;-60
2023/04/24 03:55:32;;;;;;;0.50;0.40;;;14.20;88.90;;;;;;5047177;28;20044;-59
2023/04/24 03:57:59;;;;;;;2.20;0.40;;;14.20;88.90;;;;;;5047101;28;20111;-59
2023/04/24 04:00:26;;;;;;;1.52;0.57;;;14.20;88.80;;;;;;5046768;28;20041;-59
2023/04/24 04:02:51;;;;;;;0.85;0.30;;;14.20;88.90;;;;;;5047200;28;20029;-59
2023/04/24 04:05:17;;;;;;;5.85;0.60;;;14.20;88.90;;;;;;5046392;28;20346;-59
2023/04/24 04:07:42;;;;;;;1.77;0.57;;;14.10;88.80;;;;;;5046718;28;20065;-60
2023/04/24 04:10:08;;;;;;;0.82;0.38;;;14.20;88.90;;;;;;5047003;28;20035;-60
2023/04/24 04:12:35;;;;;;;0.22;0.20;;;14.20;88.90;;;;;;5046928;28;20052;-59
2023/04/24 04:15:00;;;;;;;0.82;0.45;;;14.20;89.40;;;;;;5046630;28;20115;-59
2023/04/24 04:17:26;;;;;;;1.65;0.52;;;14.20;88.80;;;;;;5046902;28;20412;-59
2023/04/24 04:19:51;;;;;;;0.93;0.30;;;14.10;88.70;;;;;;5046697;28;20108;-59
2023/04/24 04:22:17;;;;;;;1.50;0.50;;;14.10;88.70;;;;;;5046301;28;20080;-59
2023/04/24 04:24:42;;;;;;;1.48;0.45;;;14.20;88.90;;;;;;5046308;28;20104;-59
2023/04/24 04:27:08;;;;;;;1.40;0.50;;;14.10;88.90;;;;;;5046785;28;20035;-59
2023/04/24 04:29:34;;;;;;;2.50;0.30;;;14.10;89.00;;;;;;5046542;28;20037;-59
2023/04/24 04:32:01;;;;;;;1.20;0.40;;;14.00;88.90;;;;;;5046310;28;20108;-59
2023/04/24 04:34:26;;;;;;;1.55;0.35;;;14.00;88.80;;;;;;5046199;28;20033;-59
2023/04/24 04:36:52;;;;;;;0.47;0.20;;;14.10;88.90;;;;;;5046383;28;20047;-59
2023/04/24 04:39:18;;;;;;;0.17;0.10;;;14.00;88.90;;;;;;5046043;28;20462;-59
2023/04/24 04:41:46;;;;;;;0.95;0.40;;;14.00;88.90;;;;;;5046001;28;20048;-59
2023/04/24 04:44:12;;;;;;;0.77;0.20;;;14.00;89.60;;;;;;5044608;28;20049;-59
2023/04/24 04:46:38;;;;;;;2.08;0.45;;;14.00;89.00;;;;;;5045951;28;20112;-59
2023/04/24 04:49:03;;;;;;;1.73;0.40;;;13.90;89.00;;;;;;5044748;28;20033;-60
2023/04/24 04:51:29;;;;;;;2.58;0.43;;;13.90;88.90;;;;;;5046087;28;20063;-59
2023/04/24 04:53:55;;;;;;;1.27;0.10;;;13.90;89.00;;;;;;5045906;28;20116;-60
2023/04/24 04:56:21;;;;;;;0.88;0.28;;;13.90;89.00;;;;;;5045959;28;20037;-59
2023/04/24 04:58:47;;;;;;;1.80;0.30;;;13.90;89.10;;;;;;5045958;28;20033;-59
2023/04/24 05:01:12;;;;;;;1.85;0.30;;;13.90;89.20;;;;;;5045575;28;20037;-59
2023/04/24 05:03:38;;;;;;;1.33;0.35;;;13.80;89.10;;;;;;5045788;28;20048;-59
2023/04/24 05:06:04;;;;;;;0.52;0.38;;;13.80;89.20;;;;;;5044532;28;20040;-59
2023/04/24 05:08:30;;;;;;;0.63;0.20;;;13.80;89.40;;;;;;5046972;28;20022;-60
2023/04/24 05:10:55;;;;;;;1.60;0.40;;;13.80;89.40;;;;;;5046453;28;20037;-59
2023/04/24 05:13:21;;;;;;;3.17;0.60;;;13.80;89.50;;;;;;5045881;28;20032;-59
2023/04/24 05:15:46;;;;;;;0.65;0.20;;;13.80;89.80;;;;;;5044653;28;20033;-56
2023/04/24 05:18:12;;;;;;;4.07;0.70;;;13.80;89.90;;;;;;5045406;28;20026;-56
2023/04/24 05:20:38;;;;;;;0.65;0.20;;;13.80;89.80;;;;;;5045165;28;20041;-56
2023/04/24 05:23:03;;;;;;;0.77;0.30;;;13.80;89.90;;;;;;5045157;28;20443;-56
2023/04/24 05:25:30;;;;;;;1.38;0.40;;;13.70;89.80;;;;;;5045237;28;20110;-56
2023/04/24 05:27:55;;;;;;;3.50;0.47;;;13.90;90.00;;;;;;5045283;28;20135;-56
2023/04/24 05:30:21;;;;;;;0.75;0.45;;;13.90;90.00;;;;;;5043461;28;20044;-55
2023/04/24 05:32:46;;;;;;;2.33;0.30;;;13.70;90.10;;;;;;5044956;28;20049;-56
2023/04/24 05:35:12;;;;;;;0.75;0.43;;;13.60;90.20;;;;;;5044873;28;20057;-56
2023/04/24 05:37:38;;;;;;;0.40;0.30;;;13.70;90.20;;;;;;5043772;28;20037;-56
2023/04/24 05:40:05;;;;;;;0.55;0.30;;;13.70;90.20;;;;;;5044901;28;20086;-56
2023/04/24 05:42:30;;;;;;;1.67;0.32;;;13.70;90.20;;;;;;5043925;28;20062;-56
2023/04/24 05:44:56;;;;;;;3.08;0.35;;;13.70;90.30;;;;;;5044965;28;20053;-55
2023/04/24 05:47:22;;;;;;;0.85;0.22;;;13.60;90.30;;;;;;5045083;28;20462;-56
2023/04/24 05:49:47;;;;;;;0.55;0.25;;;13.80;90.30;;;;;;5045187;28;20028;-55
2023/04/24 05:52:13;;;;;;;0.30;0.20;;;13.60;90.30;;;;;;5045115;28;20605;-56
2023/04/24 05:54:39;;;;;;;1.98;0.40;;;13.60;90.40;;;;;;5044710;28;20084;-56
2023/04/24 05:57:07;;;;;;;0.93;0.30;;;13.80;90.40;;;;;;5044850;28;20080;-55
2023/04/24 05:59:33;;;;;;;0.90;0.40;;;13.60;90.40;;;;;;5045149;28;20033;-56
2023/04/24 06:01:59;;;;;;;1.08;0.30;;;13.60;90.40;;;;;;5044643;28;20037;-55
2023/04/24 06:04:26;;;;;;;1.08;0.30;;;13.60;90.50;;;;;;5043435;28;20037;-56
2023/04/24 06:06:55;;;;;;;0.52;0.30;;;13.60;90.50;;;;;;5044574;28;20033;-56
2023/04/24 06:09:24;;;;;;;2.88;0.40;;;13.60;90.50;;;;;;5044864;28;20032;-56
2023/04/24 06:11:52;;;;;;;0.50;0.20;;;13.60;90.60;;;;;;5043903;28;20029;-56
2023/04/24 06:14:18;;;;;;;1.58;0.30;;;13.60;90.60;;;;;;5044454;28;20052;-56
2023/04/24 06:16:44;;;;;;;0.40;0.30;;;13.60;90.50;;;;;;5044297;28;20025;-56
2023/04/24 06:19:09;;;;;;;3.28;0.50;;;13.60;90.60;;;;;;5044455;28;20052;-56
2023/04/24 06:21:35;;;;;;;0.80;0.30;;;13.60;90.60;;;;;;5043014;28;20030;-60
2023/04/24 06:24:00;;;;;;;1.30;0.50;;;13.60;90.60;;;;;;5041458;28;20041;-60
2023/04/24 06:26:26;;;;;;;0.70;0.28;;;13.60;90.60;;;;;;5043961;28;20014;-59
2023/04/24 06:28:56;;;;;;;1.40;0.47;;;13.60;90.60;;;;;;5045994;28;20036;-59
2023/04/24 06:31:21;;;;;;;0.65;0.40;;;13.60;90.60;;;;;;5046706;28;20041;-60
2023/04/24 06:33:48;;;;;;;0.50;0.40;;;13.70;90.60;;;;;;5047986;28;20115;-60
2023/04/24 06:36:13;;;;;;;2.28;0.55;;;13.90;90.60;;;;;;5074353;28;20029;-59
2023/04/24 06:38:39;;;;;;;1.65;0.50;;;13.70;90.60;;;;;;5040553;28;20430;-59
2023/04/24 06:41:05;;;;;;;1.10;0.47;;;13.70;90.60;;;;;;5040725;28;20033;-59
2023/04/24 06:43:31;;;;;;;0.82;0.30;;;13.70;90.60;;;;;;5047708;28;20029;-60
2023/04/24 06:46:00;;;;;;;4.32;0.60;;;13.70;90.60;;;;;;5055905;28;20322;-59
2023/04/24 06:48:25;;;;;;;0.75;0.40;;;13.70;90.60;;;;;;5038544;28;20021;-59
2023/04/24 06:50:51;;;;;;;4.63;0.52;;;13.70;90.60;;;;;;5044260;28;20045;-60
2023/04/24 06:53:17;;;;;;;4.10;0.60;;;13.70;90.70;;;;;;5059062;28;20033;-59
2023/04/24 06:55:44;;;;;;;2.42;0.80;;;13.70;90.70;;;;;;5046017;28;20025;-60
2023/04/24 06:58:10;;;;;;;2.72;0.60;;;13.70;90.70;;;;;;5044893;28;20068;-59
2023/04/24 07:00:36;;;;;;;3.85;0.73;;;13.70;90.70;;;;;;5044682;28;20465;-59
2023/04/24 07:03:02;;;;;;;3.03;0.90;;;13.80;90.70;;;;;;5050780;28;20049;-59
2023/04/24 07:05:28;;;;;;;4.55;0.80;;;13.70;90.70;;;;;;5042902;28;20064;-59
2023/04/24 07:07:53;;;;;;;4.78;0.90;;;13.80;90.90;;;;;;5052392;28;20017;-59
2023/04/24 07:10:19;;;;;;;8.32;1.17;;;13.80;90.90;;;;;;5039233;28;20021;-59
2023/04/24 07:12:46;;;;;;;6.68;0.77;;;13.80;90.90;;;;;;5043216;28;20038;-59
2023/04/24 07:15:12;;;;;;;6.93;1.02;;;13.80;90.80;;;;;;5043895;28;20071;-60
2023/04/24 07:17:38;;;;;;;6.32;1.10;;;13.80;90.90;;;;;;5043325;28;20046;-60
2023/04/24 07:20:05;;;;;;;7.03;1.25;;;13.80;90.90;;;;;;5045397;28;20026;-60
2023/04/24 07:22:30;;;;;;;7.22;0.90;;;13.80;91.10;;;;;;5044905;28;20120;-59
2023/04/24 07:24:56;;;;;;;1.13;0.55;;;13.80;90.80;;;;;;5044667;28;20041;-60
2023/04/24 07:27:22;;;;;;;5.85;0.85;;;14.10;90.90;;;;;;5044085;28;20441;-59
2023/04/24 07:29:48;;;;;;;6.05;0.85;;;13.80;90.80;;;;;;5042783;28;20094;-59
2023/04/24 07:32:14;;;;;;;2.78;0.93;;;13.80;90.80;;;;;;5044535;28;20114;-59
2023/04/24 07:34:40;;;;;;;6.82;1.20;;;13.80;90.90;;;;;;5045428;28;20029;-59
2023/04/24 07:37:05;;;;;;;3.38;0.88;;;13.80;90.90;;;;;;5048003;28;20029;-60
2023/04/24 07:39:31;;;;;;;2.20;0.90;;;14.10;91.00;;;;;;5045239;28;20037;-59
2023/04/24 07:41:58;;;;;;;3.15;0.93;;;13.80;90.90;;;;;;5044755;28;20028;-59
2023/04/24 07:44:24;;;;;;;5.60;0.82;;;13.90;90.90;;;;;;5045661;28;20032;-59
2023/04/24 07:46:50;;;;;;;4.55;0.90;;;13.90;90.90;;;;;;5046837;28;20029;-59
2023/04/24 07:49:15;;;;;;;2.95;0.88;;;13.90;90.90;;;;;;5047046;28;20080;-59
2023/04/24 07:51:41;;;;;;;1.48;0.60;;;13.90;90.90;;;;;;5046622;28;20044;-59
2023/04/24 07:54:06;;;;;;;8.02;1.23;;;13.90;90.90;;;;;;5044912;28;20037;-59
2023/04/24 07:56:33;;;;;;;4.57;1.02;;;13.90;90.90;;;;;;5046709;28;20039;-59
2023/04/24 07:58:58;;;;;;;5.80;1.23;;;13.90;90.90;;;;;;5046815;28;20037;-59
2023/04/24 08:01:24;;;;;;;8.00;1.40;;;14.00;90.90;;;;;;5038171;28;20040;-60
2023/04/24 08:03:50;;;;;;;4.97;1.60;;;13.90;90.80;;;;;;5042917;28;20029;-59
2023/04/24 08:06:15;;;;;;;6.68;1.13;;;13.90;90.70;;;;;;5042647;28;20025;-60
2023/04/24 08:08:41;;;;;;;13.48;2.17;;;13.90;90.60;;;;;;5042849;28;20037;-60
2023/04/24 08:11:07;;;;;;;7.55;1.23;;;13.90;90.40;;;;;;5042598;28;20095;-60
2023/04/24 08:13:32;;;;;;;19.40;3.05;;;13.90;90.30;;;;;;5042177;28;20033;-60
2023/04/24 08:15:58;;;;;;;17.08;2.03;;;13.90;90.30;;;;;;5043807;28;20029;-60
2023/04/24 08:18:23;;;;;;;27.65;3.05;;;13.90;90.30;;;;;;5043437;28;20163;-60
2023/04/24 08:20:49;;;;;;;15.25;2.47;;;14.10;90.20;;;;;;5043840;28;20473;-60
2023/04/24 08:23:14;;;;;;;13.02;2.40;;;13.80;90.10;;;;;;5042998;28;20104;-60
2023/04/24 08:25:40;;;;;;;33.17;3.33;;;13.90;90.20;;;;;;5043365;28;20048;-60
2023/04/24 08:28:06;;;;;;;17.27;2.95;;;13.90;90.20;;;;;;5043568;28;20026;-60
2023/04/24 08:30:32;;;;;;;20.05;2.90;;;13.80;90.10;;;;;;5043771;28;20109;-60
2023/04/24 08:32:57;;;;;;;25.08;3.15;;;13.80;90.10;;;;;;5042960;28;20470;-59
2023/04/24 08:35:23;;;;;;;30.25;3.85;;;13.80;90.10;;;;;;5042242;28;20038;-60
2023/04/24 08:37:49;;;;;;;23.80;3.80;;;14.00;90.20;;;;;;5042146;28;20033;-60
2023/04/24 08:40:15;;;;;;;38.45;3.90;;;13.80;90.20;;;;;;5025338;28;20088;-60
2023/04/24 08:42:44;;;;;;;38.35;4.47;;;13.80;90.10;;;;;;5042834;28;20034;-60
2023/04/24 08:45:11;;;;;;;43.03;5.40;;;13.90;90.10;;;;;;5043249;28;20045;-60
2023/04/24 08:47:38;;;;;;;40.50;4.90;;;13.90;90.00;;;;;;5042463;28;20021;-60
2023/04/24 08:50:05;;;;;;;52.05;5.18;;;14.00;90.00;;;;;;5025006;28;20026;-56
2023/04/24 08:52:32;;;;;;;53.60;6.05;;;13.90;89.90;;;;;;5042420;28;20022;-56
2023/04/24 08:54:59;;;;;;;65.32;6.82;;;13.90;89.80;;;;;;5042454;28;20041;-56
2023/04/24 08:57:25;;;;;;;204.00;18.10;;;14.00;89.90;;;;;;5040999;28;20049;-56
2023/04/24 08:59:51;;;;;;;98.13;9.60;;;14.00;89.80;;;;;;5040163;28;20040;-56
2023/04/24 09:02:17;;;;;;;53.17;7.00;;;14.00;89.60;;;;;;5041786;28;20026;-56
2023/04/24 09:04:42;;;;;;;58.33;6.97;;;13.90;90.00;;;;;;5042465;28;20071;-56
2023/04/24 09:07:08;;;;;;;58.90;6.93;;;14.00;89.60;;;;;;5042851;28;20029;-56
2023/04/24 09:09:34;;;;;;;41.45;6.00;;;14.00;89.60;;;;;;5042127;28;20030;-55
2023/04/24 09:12:00;;;;;;;49.95;6.55;;;13.90;89.60;;;;;;5041327;28;20488;-56
2023/04/24 09:14:25;;;;;;;51.65;7.00;;;14.00;89.80;;;;;;5041043;28;20037;-56
2023/04/24 09:16:51;;;;;;;72.53;7.90;;;14.10;89.70;;;;;;5042377;28;20032;-56
2023/04/24 09:19:17;;;;;;;61.78;7.85;;;14.00;89.50;;;;;;5042694;28;20040;-56
2023/04/24 09:21:45;;;;;;;50.33;7.18;;;14.00;90.10;;;;;;5042573;28;20034;-56
2023/04/24 09:24:17;;;;;;;56.33;7.13;;;14.00;89.60;;;;;;5040630;28;20034;-56
2023/04/24 09:26:43;;;;;;;68.07;7.97;;;14.00;89.50;;;;;;5041024;28;20136;-56
2023/04/24 09:29:15;;;;;;;70.25;8.40;;;14.00;89.60;;;;;;5040855;28;20053;-56
2023/04/24 09:31:40;;;;;;;60.33;6.90;;;14.00;89.50;;;;;;5034670;28;20033;-56
2023/04/24 09:34:06;;;;;;;52.03;6.95;;;14.00;89.30;;;;;;5042780;28;20056;-56
2023/04/24 09:36:40;;;;;;;47.38;6.40;;;14.00;89.20;;;;;;5042713;28;20057;-56
2023/04/24 09:39:15;;;;;;;57.17;7.78;;;13.90;89.10;;;;;;5044800;28;20339;-56
2023/04/24 09:41:50;;;;;;;51.92;6.10;;;13.90;89.10;;;;;;5044346;28;20030;-56
2023/04/24 09:44:22;;;;;;;;;;;14.00;88.90;;;;;;5045001;28;20021;-56
2023/04/24 09:46:54;;;;;;;36.05;6.65;;;13.90;88.50;;;;;;5043724;28;19920;-56
2023/04/24 09:49:39;;;;;;;45.83;5.43;;;14.00;88.60;;;;;;5044997;28;20041;-56
2023/04/24 09:52:05;;;;;;;52.70;6.15;;;14.00;88.20;;;;;;5044005;28;20040;-56
2023/04/24 09:54:31;;;;;;;84.32;8.73;;;14.00;88.20;;;;;;5043758;28;20057;-56
2023/04/24 09:56:56;;;;;;;51.85;7.28;;;14.00;88.10;;;;;;5037884;28;20052;-56
2023/04/24 09:59:22;;;;;;;69.45;7.93;;;14.00;88.50;;;;;;5039431;28;20037;-56
2023/04/24 10:01:52;;;;;;;81.55;7.85;;;14.00;88.40;;;;;;5044487;28;20089;-56
2023/04/24 10:04:25;;;;;;;83.55;10.38;;;14.00;88.50;;;;;;5043461;28;20017;-56
2023/04/24 10:06:53;;;;;;;74.68;8.77;;;14.00;88.60;;;;;;5040688;28;20030;-56
2023/04/24 10:09:19;;;;;;;79.38;9.07;;;14.00;88.10;;;;;;5041971;28;20147;-56
2023/04/24 10:11:46;;;;;;;73.13;9.32;;;14.00;88.30;;;;;;5041446;28;20032;-56
2023/04/24 10:14:17;;;;;;;49.25;7.53;;;14.00;88.40;;;;;;5049888;28;20032;-56
2023/04/24 10:16:42;;;;;;;102.22;9.57;;;14.10;88.20;;;;;;5045729;28;20098;-56
2023/04/24 10:19:09;;;;;;;101.20;11.95;;;14.10;87.70;;;;;;5047905;28;20151;-57
2023/04/24 10:21:35;;;;;;;98.28;11.27;;;14.10;87.60;;;;;;5042167;28;20037;-56
2023/04/24 10:24:03;;;;;;;81.30;9.38;;;14.20;88.20;;;;;;5057055;28;20098;-57
2023/04/24 10:26:29;;;;;;;95.05;11.50;;;14.10;87.50;;;;;;5039294;28;20037;-57
2023/04/24 10:28:54;;;;;;;106.22;11.70;;;14.10;87.80;;;;;;5054508;28;20025;-56
2023/04/24 10:31:20;;;;;;;115.00;11.10;;;14.10;87.90;;;;;;5027668;28;20075;-56
2023/04/24 10:33:46;;;;;;;87.35;10.98;;;14.10;87.80;;;;;;5047116;28;20112;-56
2023/04/24 10:36:12;;;;;;;86.95;10.68;;;14.20;88.20;;;;;;5046251;28;20146;-56
2023/04/24 10:38:40;;;;;;;67.97;9.15;;;14.10;87.30;;;;;;5038102;28;20040;-56
2023/04/24 10:41:10;;;;;;;66.25;8.35;;;14.10;86.70;;;;;;5041576;28;20111;-56
2023/04/24 10:43:35;;;;;;;61.17;7.57;;;14.20;86.70;;;;;;5034905;28;20049;-56
2023/04/24 10:46:02;;;;;;;61.25;8.15;;;14.20;85.40;;;;;;5041979;28;20497;-56
2023/04/24 10:48:28;;;;;;;36.70;5.82;;;14.20;84.90;;;;;;5042733;28;20018;-57
2023/04/24 10:50:54;;;;;;;36.03;5.57;;;14.30;84.90;;;;;;5032178;28;20766;-56
2023/04/24 10:53:22;;;;;;;43.42;6.28;;;14.20;84.00;;;;;;5039803;28;20490;-56
2023/04/24 10:55:56;;;;;;;39.55;5.97;;;14.30;83.80;;;;;;5040492;28;20504;-57
2023/04/24 10:58:23;;;;;;;62.15;7.57;;;14.30;83.90;;;;;;5046663;28;20056;-56
2023/04/24 11:01:00;;;;;;;59.75;7.57;;;14.40;83.60;;;;;;5040553;28;20030;-56
2023/04/24 11:03:29;;;;;;;39.58;6.60;;;14.50;84.00;;;;;;5041831;28;20051;-56
2023/04/24 11:05:57;;;;;;;61.13;7.85;;;14.50;83.30;;;;;;5038090;28;20048;-57
2023/04/24 11:08:37;;;;;;;80.65;8.57;;;14.50;83.00;;;;;;5039535;28;20026;-56
2023/04/24 11:11:16;;;;;;;103.65;12.10;;;14.60;82.90;;;;;;5036497;28;20033;-57
2023/04/24 11:13:55;;;;;;;81.18;11.05;;;14.50;82.30;;;;;;5040468;28;20033;-56
2023/04/24 11:16:33;;;;;;;72.60;10.95;;;14.60;83.00;;;;;;5035426;28;20104;-56
2023/04/24 11:19:15;;;;;;;72.50;9.80;;;14.60;82.70;;;;;;5045097;28;20049;-56
2023/04/24 11:21:48;;;;;;;65.05;8.15;;;14.60;82.80;;;;;;5038288;28;20093;-56
2023/04/24 11:24:37;;;;;;;65.43;7.75;;;14.70;82.50;;;;;;5049041;28;20026;-56
2023/04/24 11:27:06;;;;;;;34.58;5.80;;;14.70;82.00;;;;;;5038776;28;20093;-56
2023/04/24 11:29:57;;;;;;;28.45;5.22;;;14.70;81.60;;;;;;5051747;28;20022;-56
2023/04/24 11:32:37;;;;;;;31.75;5.55;;;14.80;81.20;;;;;;5042621;28;20030;-56
2023/04/24 11:35:03;;;;;;;41.08;5.70;;;14.80;80.90;;;;;;5055176;28;20052;-56
2023/04/24 11:37:34;;;;;;;41.53;5.50;;;14.90;80.60;;;;;;5046720;28;20057;-56
2023/04/24 11:39:59;;;;;;;44.15;6.15;;;14.90;80.70;;;;;;5045711;28;20022;-56
2023/04/24 11:42:25;;;;;;;96.85;13.63;;;14.90;80.80;;;;;;5045459;28;20084;-57
2023/04/24 11:44:55;;;;;;;141.77;15.45;;;14.90;80.90;;;;;;5043231;28;20427;-56
2023/04/24 11:47:30;;;;;;;47.08;5.85;;;15.00;81.20;;;;;;5028687;28;20041;-56
2023/04/24 11:49:56;;;;;;;55.80;8.27;;;15.00;80.70;;;;;;5027304;28;20087;-56
2023/04/24 11:52:21;;;;;;;56.92;8.10;;;15.00;80.40;;;;;;5025794;28;20062;-57
2023/04/24 11:54:49;;;;;;;55.65;8.05;;;15.00;80.30;;;;;;5025749;28;20079;-57
2023/04/24 11:57:14;;;;;;;65.05;8.68;;;15.10;80.30;;;;;;5026792;28;20030;-56
2023/04/24 11:59:40;;;;;;;59.45;9.00;;;15.10;80.10;;;;;;5027138;28;20029;-56
2023/04/24 12:02:06;;;;;;;66.18;9.10;;;15.20;80.00;;;;;;5026514;28;20064;-56
2023/04/24 12:04:40;;;;;;;54.13;7.13;;;15.30;80.00;;;;;;5026650;28;20029;-56
2023/04/24 12:07:08;;;;;;;59.20;9.00;;;15.30;79.70;;;;;;5026853;28;20516;-56
2023/04/24 12:09:46;;;;;;;53.90;8.32;;;15.30;80.30;;;;;;5026623;28;20053;-56
2023/04/24 12:12:13;;;;;;;54.33;7.72;;;15.30;79.30;;;;;;5026542;28;20140;-56
2023/04/24 12:14:53;;;;;;;32.50;6.07;;;15.30;79.30;;;;;;5026927;28;20155;-56
2023/04/24 12:17:30;;;;;;;54.63;6.35;;;15.40;79.20;;;;;;5026729;28;20093;-56
2023/04/24 12:20:04;;;;;;;44.08;5.90;;;15.40;78.90;;;;;;5026551;28;20442;-57
2023/04/24 12:22:50;;;;;;;51.83;6.80;;;15.50;78.90;;;;;;5026430;28;20042;-56
2023/04/24 12:25:17;;;;;;;55.38;6.82;;;15.60;79.00;;;;;;5026233;28;20092;-57
2023/04/24 12:27:44;;;;;;;45.63;6.65;;;15.60;79.10;;;;;;5026774;28;20030;-57
2023/04/24 12:30:13;;;;;;;48.65;5.18;;;15.60;79.20;;;;;;5025040;28;20042;-57
2023/04/24 12:32:46;;;;;;;36.40;5.72;;;15.60;79.20;;;;;;5024962;28;20030;-56
2023/04/24 12:35:12;;;;;;;26.13;4.38;;;15.60;78.70;;;;;;5026361;28;20026;-56
2023/04/24 12:37:39;;;;;;;29.75;5.68;;;15.60;78.90;;;;;;5025932;28;20030;-56
2023/04/24 12:40:09;;;;;;;34.67;5.07;;;15.60;79.50;;;;;;5026833;28;20081;-56
2023/04/24 12:42:36;;;;;;;34.45;4.85;;;15.70;78.70;;;;;;5025557;28;20037;-57